createdAt,value
2023-03-17T00:00:41.320Z,101138.53
2023-03-17T00:03:07.860Z,101137.50
2023-03-17T00:05:39.259Z,101133.00
2023-03-17T00:08:19.974Z,101133.28
2023-03-17T00:10:46.438Z,101137.19
2023-03-17T00:13:13.235Z,101134.34
2023-03-17T00:15:40.231Z,101143.72
2023-03-17T00:18:12.271Z,101115.69
2023-03-17T00:20:39.109Z,101148.00
2023-03-17T00:23:05.764Z,101145.06
2023-03-17T00:25:34.632Z,101126.47
2023-03-17T00:28:03.557Z,101150.59
2023-03-17T00:30:30.372Z,101111.28
2023-03-17T00:32:58.556Z,101148.97
2023-03-17T00:35:29.479Z,101159.31
2023-03-17T00:37:57.884Z,101127.75
2023-03-17T00:40:31.284Z,101140.19
2023-03-17T00:43:00.192Z,101138.94
2023-03-17T00:45:27.249Z,101132.53
2023-03-17T00:47:56.241Z,101130.41
2023-03-17T00:50:25.549Z,101103.38
2023-03-17T00:52:54.681Z,101125.63
2023-03-17T00:55:22.632Z,101123.81
2023-03-17T00:57:50.291Z,101118.09
2023-03-17T01:00:20.193Z,101107.19
2023-03-17T01:02:47.937Z,101069.34
2023-03-17T01:05:16.160Z,101083.13
2023-03-17T01:07:52.748Z,101091.78
2023-03-17T01:10:25.850Z,101099.63
2023-03-17T01:12:53.924Z,101106.53
2023-03-17T01:15:21.907Z,101086.84
2023-03-17T01:17:52.997Z,101104.34
2023-03-17T01:20:29.325Z,101113.22
2023-03-17T01:22:56.069Z,101118.16
2023-03-17T01:25:23.497Z,101112.72
2023-03-17T01:27:50.881Z,101117.13
2023-03-17T01:30:20.642Z,101106.16
2023-03-17T01:32:47.455Z,101098.03
2023-03-17T01:35:14.152Z,101102.91
2023-03-17T01:37:40.848Z,101103.09
2023-03-17T01:40:13.584Z,101097.53
2023-03-17T01:42:43.933Z,101093.91
2023-03-17T01:45:49.702Z,101094.84
2023-03-17T01:48:17.342Z,101100.28
2023-03-17T01:50:47.324Z,101061.69
2023-03-17T01:53:15.669Z,101053.75
2023-03-17T01:55:44.968Z,101081.56
2023-03-17T01:58:12.310Z,101023.44
2023-03-17T02:00:39.452Z,101082.03
2023-03-17T02:03:06.197Z,101085.00
2023-03-17T02:05:33.419Z,101076.03
2023-03-17T02:08:00.331Z,101059.03
2023-03-17T02:10:29.856Z,101065.13
2023-03-17T02:13:01.260Z,100994.41
2023-03-17T02:15:37.880Z,101061.22
2023-03-17T02:18:04.872Z,101028.03
2023-03-17T02:20:31.787Z,101047.06
2023-03-17T02:23:00.176Z,100980.56
2023-03-17T02:25:30.843Z,101032.44
2023-03-17T02:28:02.234Z,101025.00
2023-03-17T02:30:29.599Z,101035.13
2023-03-17T02:32:56.349Z,100996.34
2023-03-17T02:35:23.472Z,101034.91
2023-03-17T02:37:50.154Z,100929.56
2023-03-17T02:40:16.747Z,101029.88
2023-03-17T02:42:43.222Z,101060.06
2023-03-17T02:45:14.553Z,101053.94
2023-03-17T02:47:42.238Z,101036.66
2023-03-17T02:50:17.862Z,101044.69
2023-03-17T02:52:44.395Z,100976.94
2023-03-17T02:55:11.007Z,101042.75
2023-03-17T02:57:37.495Z,101038.09
2023-03-17T03:00:04.311Z,101040.94
2023-03-17T03:02:31.286Z,101014.47
2023-03-17T03:04:57.785Z,101040.94
2023-03-17T03:07:24.275Z,101046.13
2023-03-17T03:09:51.266Z,101048.59
2023-03-17T03:12:17.832Z,101054.81
2023-03-17T03:14:44.327Z,101034.84
2023-03-17T03:17:11.094Z,100982.94
2023-03-17T03:19:38.237Z,101022.03
2023-03-17T03:22:04.948Z,101027.94
2023-03-17T03:24:32.330Z,101014.38
2023-03-17T03:26:58.840Z,101050.59
2023-03-17T03:29:25.899Z,101022.41
2023-03-17T03:31:52.353Z,101050.03
2023-03-17T03:34:19.290Z,101012.66
2023-03-17T03:36:46.014Z,101037.22
2023-03-17T03:39:14.440Z,101036.25
2023-03-17T03:41:41.278Z,100982.19
2023-03-17T03:44:07.731Z,101038.75
2023-03-17T03:46:34.418Z,100968.34
2023-03-17T03:49:00.952Z,101027.09
2023-03-17T03:51:27.420Z,101012.84
2023-03-17T03:53:54.016Z,100996.59
2023-03-17T03:56:20.957Z,100986.47
2023-03-17T03:58:47.579Z,100984.66
2023-03-17T04:01:14.174Z,100918.50
2023-03-17T04:03:40.700Z,100962.22
2023-03-17T04:06:07.394Z,100949.53
2023-03-17T04:08:33.955Z,100971.41
2023-03-17T04:11:00.471Z,100982.84
2023-03-17T04:13:27.181Z,100995.56
2023-03-17T04:15:53.717Z,100878.53
2023-03-17T04:18:20.312Z,100996.13
2023-03-17T04:20:46.913Z,100986.13
2023-03-17T04:23:13.428Z,100961.56
2023-03-17T04:25:40.050Z,100952.09
2023-03-17T04:28:06.508Z,100960.13
2023-03-17T04:30:33.343Z,100971.56
2023-03-17T04:33:00.008Z,100982.38
2023-03-17T04:35:27.319Z,100990.19
2023-03-17T04:37:53.983Z,100976.63
2023-03-17T04:40:20.791Z,100984.28
2023-03-17T04:42:47.355Z,100983.22
2023-03-17T04:45:15.599Z,100989.34
2023-03-17T04:47:42.550Z,100961.03
2023-03-17T04:50:10.413Z,100988.75
2023-03-17T04:52:37.738Z,100955.69
2023-03-17T04:55:05.873Z,100984.84
2023-03-17T04:57:32.854Z,100922.84
2023-03-17T05:00:00.950Z,100977.97
2023-03-17T05:02:28.235Z,100984.56
2023-03-17T05:04:54.854Z,100974.06
2023-03-17T05:07:21.398Z,100970.13
2023-03-17T05:09:48.126Z,100946.53
2023-03-17T05:12:16.031Z,100950.34
2023-03-17T05:14:42.564Z,100954.47
2023-03-17T05:17:09.201Z,100960.28
2023-03-17T05:19:36.546Z,100902.06
2023-03-17T05:22:03.025Z,100953.81
2023-03-17T05:24:29.630Z,100943.06
2023-03-17T05:26:56.630Z,100944.72
2023-03-17T05:29:26.758Z,100946.06
2023-03-17T05:31:53.242Z,100944.34
2023-03-17T05:34:20.310Z,100940.31
2023-03-17T05:36:46.981Z,100938.63
2023-03-17T05:39:14.645Z,100940.56
2023-03-17T05:41:41.581Z,100942.78
2023-03-17T05:44:08.918Z,100935.97
2023-03-17T05:46:35.640Z,100922.03
2023-03-17T05:49:02.835Z,100940.72
2023-03-17T05:51:29.605Z,100944.72
2023-03-17T05:53:56.781Z,100943.41
2023-03-17T05:56:24.185Z,100865.72
2023-03-17T05:58:50.644Z,100902.53
2023-03-17T06:01:17.166Z,100931.16
2023-03-17T06:03:43.781Z,100872.16
2023-03-17T06:06:10.622Z,100928.53
2023-03-17T06:08:37.098Z,100914.09
2023-03-17T06:11:03.646Z,100926.50
2023-03-17T06:13:30.429Z,100934.53
2023-03-17T06:15:57.686Z,100934.06
2023-03-17T06:18:27.564Z,100944.94
2023-03-17T06:20:54.152Z,100938.16
2023-03-17T06:23:20.706Z,100928.41
2023-03-17T06:25:47.783Z,100880.97
2023-03-17T06:28:14.539Z,100863.41
2023-03-17T06:30:41.237Z,100929.94
2023-03-17T06:33:08.286Z,100888.91
2023-03-17T06:35:35.416Z,100930.16
2023-03-17T06:38:02.485Z,100924.97
2023-03-17T06:40:29.815Z,100926.59
2023-03-17T06:42:57.187Z,100922.50
2023-03-17T06:45:24.040Z,100917.25
2023-03-17T06:47:50.728Z,100921.81
2023-03-17T06:50:17.556Z,100937.41
2023-03-17T06:52:46.651Z,100927.06
2023-03-17T06:55:13.783Z,100936.13
2023-03-17T06:57:40.657Z,100943.28
2023-03-17T07:00:08.324Z,100942.53
2023-03-17T07:02:34.948Z,100949.44
2023-03-17T07:05:02.393Z,100879.50
2023-03-17T07:07:28.968Z,100954.75
2023-03-17T07:09:55.505Z,100952.09
2023-03-17T07:12:22.268Z,100939.28
2023-03-17T07:14:48.903Z,100941.91
2023-03-17T07:17:15.519Z,100866.09
2023-03-17T07:19:42.517Z,100933.78
2023-03-17T07:22:11.933Z,100930.25
2023-03-17T07:24:39.733Z,100937.63
2023-03-17T07:27:06.385Z,100946.91
2023-03-17T07:29:34.032Z,100912.63
2023-03-17T07:32:01.375Z,100946.41
2023-03-17T07:34:28.401Z,100913.22
2023-03-17T07:36:55.032Z,100922.84
2023-03-17T07:39:21.681Z,100942.91
2023-03-17T07:41:53.044Z,100876.00
2023-03-17T07:44:19.862Z,100929.75
2023-03-17T07:46:46.567Z,100934.38
2023-03-17T07:49:13.358Z,100945.53
2023-03-17T07:51:43.165Z,100939.84
2023-03-17T07:54:14.814Z,100929.25
2023-03-17T07:56:42.538Z,100898.34
2023-03-17T07:59:11.000Z,100925.94
2023-03-17T08:01:38.503Z,100937.47
2023-03-17T08:04:05.663Z,100934.09
2023-03-17T08:06:32.594Z,100906.38
2023-03-17T08:08:59.378Z,100913.03
2023-03-17T08:11:27.725Z,100920.34
2023-03-17T08:13:55.673Z,100919.34
2023-03-17T08:16:22.548Z,100892.19
2023-03-17T08:18:49.218Z,100827.00
2023-03-17T08:21:16.063Z,100892.81
2023-03-17T08:23:43.309Z,100861.66
2023-03-17T08:26:10.413Z,100885.28
2023-03-17T08:28:37.488Z,100891.09
2023-03-17T08:31:11.853Z,100896.44
2023-03-17T08:33:40.233Z,100865.16
2023-03-17T08:36:09.561Z,100911.63
2023-03-17T08:38:40.986Z,100915.03
2023-03-17T08:41:12.389Z,100906.97
2023-03-17T08:43:40.418Z,100848.78
2023-03-17T08:46:19.534Z,100898.63
2023-03-17T08:48:48.225Z,100885.78
2023-03-17T08:51:18.680Z,100896.97
2023-03-17T08:53:47.217Z,100880.16
2023-03-17T08:56:14.616Z,100885.09
2023-03-17T08:58:48.800Z,100850.25
2023-03-17T09:01:16.988Z,100807.38
2023-03-17T09:03:45.255Z,100879.44
2023-03-17T09:06:12.498Z,100870.47
2023-03-17T09:08:41.272Z,100871.06
2023-03-17T09:11:10.436Z,100874.09
2023-03-17T09:13:39.042Z,100843.75
2023-03-17T09:16:06.845Z,100823.44
2023-03-17T09:18:33.409Z,100871.75
2023-03-17T09:21:00.638Z,100866.53
2023-03-17T09:23:27.785Z,100817.31
2023-03-17T09:25:57.630Z,100838.00
2023-03-17T09:28:24.728Z,100776.69
2023-03-17T09:30:51.626Z,100853.31
2023-03-17T09:33:18.390Z,100848.22
2023-03-17T09:35:45.455Z,100852.38
2023-03-17T09:38:12.913Z,100803.16
2023-03-17T09:40:52.147Z,100857.88
2023-03-17T09:43:26.421Z,100863.34
2023-03-17T09:45:53.400Z,100830.63
2023-03-17T09:48:38.629Z,100864.47
2023-03-17T09:51:09.134Z,100823.16
2023-03-17T09:53:46.259Z,100838.72
2023-03-17T09:56:15.698Z,100802.50
2023-03-17T09:58:58.620Z,100789.88
2023-03-17T10:01:25.552Z,100777.19
2023-03-17T10:03:52.393Z,100829.69
2023-03-17T10:06:33.746Z,100818.94
2023-03-17T10:09:16.783Z,100821.00
2023-03-17T10:11:50.222Z,100797.47
2023-03-17T10:14:35.637Z,100818.28
2023-03-17T10:17:22.943Z,100798.31
2023-03-17T10:20:16.942Z,100809.31
2023-03-17T10:22:46.326Z,100805.78
2023-03-17T10:25:22.505Z,100816.00
2023-03-17T10:28:03.827Z,100828.44
2023-03-17T10:30:33.944Z,100795.38
2023-03-17T10:33:03.449Z,100804.06
2023-03-17T10:35:36.084Z,100830.78
2023-03-17T10:38:22.668Z,100791.75
2023-03-17T10:41:16.791Z,100808.41
2023-03-17T10:43:50.411Z,100811.72
2023-03-17T10:46:22.353Z,100815.66
2023-03-17T10:48:56.550Z,100747.59
2023-03-17T10:51:32.617Z,100829.72
2023-03-17T10:54:09.761Z,100810.09
2023-03-17T10:56:38.690Z,100807.50
2023-03-17T10:59:19.249Z,100809.16
2023-03-17T11:02:17.316Z,100803.78
2023-03-17T11:04:44.173Z,100802.78
2023-03-17T11:07:20.354Z,100800.72
2023-03-17T11:09:52.791Z,100797.34
2023-03-17T11:12:30.189Z,100757.03
2023-03-17T11:15:01.138Z,100775.09
2023-03-17T11:17:59.502Z,100796.44
2023-03-17T11:20:38.668Z,100783.44
2023-03-17T11:23:26.608Z,100791.72
2023-03-17T11:26:24.460Z,100791.09
2023-03-17T11:28:59.186Z,100714.97
2023-03-17T11:31:34.240Z,100730.09
2023-03-17T11:34:01.316Z,100775.31
2023-03-17T11:36:57.856Z,100771.75
2023-03-17T11:40:03.771Z,100748.41
2023-03-17T11:42:43.519Z,100756.88
2023-03-17T11:45:28.239Z,100754.88
2023-03-17T11:48:01.813Z,100744.44
2023-03-17T11:50:45.330Z,100632.84
2023-03-17T11:53:45.127Z,100750.09
2023-03-17T11:56:20.701Z,100641.47
2023-03-17T11:58:51.579Z,100740.97
2023-03-17T12:01:29.608Z,100683.88
2023-03-17T12:04:18.595Z,100735.81
2023-03-17T12:06:52.082Z,100627.81
2023-03-17T12:12:13.074Z,100735.16
2023-03-17T12:14:46.458Z,100684.72
2023-03-17T12:17:31.487Z,100751.47
2023-03-17T12:20:08.786Z,100737.59
2023-03-17T12:22:53.990Z,100679.81
2023-03-17T12:25:27.665Z,100721.22
2023-03-17T12:28:11.129Z,100734.38
2023-03-17T12:31:09.490Z,100730.09
2023-03-17T12:33:58.866Z,100706.47
2023-03-17T12:36:26.397Z,100645.59
2023-03-17T12:39:02.133Z,100710.47
2023-03-17T12:41:49.149Z,100689.06
2023-03-17T12:44:33.266Z,100682.84
2023-03-17T12:47:08.319Z,100663.63
2023-03-17T12:49:37.438Z,100711.13
2023-03-17T12:52:20.289Z,100711.38
2023-03-17T12:54:52.038Z,100681.22
2023-03-17T12:57:21.419Z,100715.22
2023-03-17T12:59:53.081Z,100710.00
2023-03-17T13:02:28.730Z,100703.94
2023-03-17T13:05:04.644Z,100655.09
2023-03-17T13:07:53.999Z,100691.16
2023-03-17T13:10:48.566Z,100632.81
2023-03-17T13:13:36.505Z,100692.31
2023-03-17T13:16:05.938Z,100700.31
2023-03-17T13:18:35.188Z,100691.06
2023-03-17T13:21:02.223Z,100696.56
2023-03-17T13:23:42.341Z,100685.81
2023-03-17T13:26:12.334Z,100668.59
2023-03-17T13:28:40.218Z,100709.16
2023-03-17T13:31:34.037Z,100725.47
2023-03-17T13:34:19.664Z,100682.69
2023-03-17T13:36:52.541Z,100712.91
2023-03-17T13:39:25.106Z,100715.25
2023-03-17T13:42:18.147Z,100708.59
2023-03-17T13:45:04.284Z,100704.78
2023-03-17T13:47:38.442Z,100672.94
2023-03-17T13:50:32.076Z,100695.78
2023-03-17T13:53:04.916Z,100640.78
2023-03-17T13:55:41.005Z,100701.97
2023-03-17T13:58:10.966Z,100694.34
2023-03-17T14:00:40.798Z,100688.16
2023-03-17T14:03:15.619Z,100690.34
2023-03-17T14:05:46.398Z,100699.72
2023-03-17T14:08:23.625Z,100701.13
2023-03-17T14:11:00.792Z,100696.25
2023-03-17T14:13:53.817Z,100671.75
2023-03-17T14:16:26.988Z,100649.63
2023-03-17T14:19:09.845Z,100688.19
2023-03-17T14:21:36.685Z,100586.91
2023-03-17T14:24:18.283Z,100668.84
2023-03-17T14:26:44.911Z,100682.81
2023-03-17T14:29:16.483Z,100676.38
2023-03-17T14:31:52.797Z,100684.88
2023-03-17T14:34:22.585Z,100640.47
2023-03-17T14:36:51.364Z,100683.66
2023-03-17T14:39:25.857Z,100682.69
2023-03-17T14:42:04.398Z,100683.84
2023-03-17T14:44:39.296Z,100681.91
2023-03-17T14:47:13.853Z,100674.09
2023-03-17T14:49:40.756Z,100657.78
2023-03-17T14:52:20.291Z,100677.59
2023-03-17T14:54:51.614Z,100623.09
2023-03-17T14:57:21.479Z,100663.91
2023-03-17T15:00:00.864Z,100680.34
2023-03-17T15:02:36.363Z,100673.59
2023-03-17T15:05:21.306Z,100649.88
2023-03-17T15:07:47.872Z,100676.31
2023-03-17T15:10:16.589Z,100683.22
2023-03-17T15:12:46.755Z,100625.13
2023-03-17T15:15:29.500Z,100681.72
2023-03-17T15:17:58.965Z,100684.13
2023-03-17T15:20:25.902Z,100675.38
2023-03-17T15:22:55.311Z,100687.47
2023-03-17T15:25:33.525Z,100687.94
2023-03-17T15:28:00.656Z,100678.41
2023-03-17T15:30:29.496Z,100697.50
2023-03-17T15:33:01.009Z,100659.94
2023-03-17T15:35:28.295Z,100689.31
2023-03-17T15:37:55.671Z,100705.22
2023-03-17T15:40:22.339Z,100651.72
2023-03-17T15:42:48.839Z,100669.72
2023-03-17T15:45:17.035Z,100696.69
2023-03-17T15:47:47.071Z,100675.78
2023-03-17T15:50:24.040Z,100684.44
2023-03-17T15:52:56.046Z,100684.25
2023-03-17T15:55:29.858Z,100656.38
2023-03-17T15:57:58.244Z,100655.09
2023-03-17T16:00:29.573Z,100626.06
2023-03-17T16:02:59.667Z,100646.03
2023-03-17T16:05:30.274Z,100642.13
2023-03-17T16:07:57.443Z,100632.97
2023-03-17T16:10:33.728Z,100639.75
2023-03-17T16:13:00.581Z,100596.13
2023-03-17T16:15:31.378Z,100622.94
2023-03-17T16:18:00.685Z,100629.91
2023-03-17T16:20:38.564Z,100625.53
2023-03-17T16:23:27.160Z,100618.16
2023-03-17T16:25:59.343Z,100651.66
2023-03-17T16:28:32.506Z,100668.09
2023-03-17T16:31:01.472Z,100663.22
2023-03-17T16:33:32.520Z,100531.03
2023-03-17T16:36:00.992Z,100674.59
2023-03-17T16:38:30.966Z,100670.28
2023-03-17T16:41:06.224Z,100680.66
2023-03-17T16:43:38.127Z,100670.97
2023-03-17T16:46:06.949Z,100676.25
2023-03-17T16:48:33.555Z,100664.00
2023-03-17T16:51:00.247Z,100689.53
2023-03-17T16:53:27.093Z,100693.72
2023-03-17T16:55:54.669Z,100708.53
2023-03-17T16:58:24.474Z,100710.03
2023-03-17T17:00:53.870Z,100702.53
2023-03-17T17:03:20.520Z,100677.41
2023-03-17T17:05:47.307Z,100719.38
2023-03-17T17:08:13.804Z,100723.78
2023-03-17T17:10:40.902Z,100727.88
2023-03-17T17:13:09.378Z,100670.03
2023-03-17T17:15:36.922Z,100684.09
2023-03-17T17:18:20.585Z,100726.06
2023-03-17T17:20:49.041Z,100728.53
2023-03-17T17:23:18.832Z,100719.00
2023-03-17T17:25:45.406Z,100731.16
2023-03-17T17:28:13.659Z,100710.09
2023-03-17T17:30:43.041Z,100639.78
2023-03-17T17:33:10.452Z,100670.56
2023-03-17T17:35:38.115Z,100631.16
2023-03-17T17:38:18.466Z,100587.03
2023-03-17T17:40:49.947Z,100625.53
2023-03-17T17:43:18.623Z,100700.00
2023-03-17T17:45:50.799Z,100713.56
2023-03-17T17:48:22.766Z,100656.25
2023-03-17T17:50:53.784Z,100704.00
2023-03-17T17:53:23.920Z,100690.97
2023-03-17T17:55:54.277Z,100717.94
2023-03-17T17:58:25.171Z,100674.84
2023-03-17T18:00:55.353Z,100677.47
2023-03-17T18:03:25.214Z,100745.84
2023-03-17T18:05:56.337Z,100738.84
2023-03-17T18:08:24.570Z,100738.84
2023-03-17T18:10:52.203Z,100733.56
2023-03-17T18:13:19.200Z,100742.84
2023-03-17T18:15:46.076Z,100722.25
2023-03-17T18:18:12.542Z,100732.72
2023-03-17T18:20:39.191Z,100740.94
2023-03-17T18:23:06.292Z,100740.25
2023-03-17T18:25:32.874Z,100701.69
2023-03-17T18:28:01.427Z,100731.88
2023-03-17T18:30:30.325Z,100732.03
2023-03-17T18:33:09.327Z,100678.56
2023-03-17T18:35:36.242Z,100683.28
2023-03-17T18:38:03.369Z,100721.00
2023-03-17T18:40:29.922Z,100731.00
2023-03-17T18:42:59.311Z,100735.53
2023-03-17T18:45:26.242Z,100696.53
2023-03-17T18:47:52.814Z,100734.38
2023-03-17T18:50:22.160Z,100677.28
2023-03-17T18:52:52.341Z,100688.13
2023-03-17T18:55:19.146Z,100732.59
2023-03-17T18:57:46.467Z,100741.72
2023-03-17T19:00:16.380Z,100730.22
2023-03-17T19:02:43.205Z,100735.47
2023-03-17T19:05:10.460Z,100728.28
2023-03-17T19:07:40.173Z,100730.91
2023-03-17T19:10:07.468Z,100732.91
2023-03-17T19:12:34.062Z,100636.59
2023-03-17T19:15:01.738Z,100716.25
2023-03-17T19:17:28.386Z,100692.56
2023-03-17T19:19:55.003Z,100711.78
2023-03-17T19:22:21.598Z,100719.22
2023-03-17T19:24:50.306Z,100705.25
2023-03-17T19:27:17.395Z,100661.97
2023-03-17T19:29:43.985Z,100698.44
2023-03-17T19:32:10.502Z,100604.94
2023-03-17T19:34:37.075Z,100626.03
2023-03-17T19:37:04.195Z,100637.97
2023-03-17T19:39:31.463Z,100677.59
2023-03-17T19:41:59.302Z,100664.94
2023-03-17T19:44:26.198Z,100629.44
2023-03-17T19:46:52.901Z,100651.44
2023-03-17T19:49:21.197Z,100635.75
2023-03-17T19:51:49.105Z,100675.97
2023-03-17T19:54:15.995Z,100672.72
2023-03-17T19:56:42.672Z,100635.44
2023-03-17T19:59:09.402Z,100673.03
2023-03-17T20:01:38.025Z,100674.94
2023-03-17T20:04:06.991Z,100668.81
2023-03-17T20:06:34.783Z,100625.13
2023-03-17T20:09:04.193Z,100637.38
2023-03-17T20:11:34.053Z,100641.91
2023-03-17T20:14:02.924Z,100672.59
2023-03-17T20:16:32.814Z,100667.44
2023-03-17T20:19:03.747Z,100662.72
2023-03-17T20:21:31.372Z,100662.03
2023-03-17T20:23:57.980Z,100658.50
2023-03-17T20:26:24.675Z,100656.41
2023-03-17T20:28:51.661Z,100657.38
2023-03-17T20:31:18.686Z,100618.50
2023-03-17T20:33:45.257Z,100655.97
2023-03-17T20:36:12.938Z,100672.91
2023-03-17T20:38:40.754Z,100674.75
2023-03-17T20:41:12.935Z,100681.88
2023-03-17T20:43:40.642Z,100681.34
2023-03-17T20:46:16.676Z,100642.94
2023-03-17T20:48:44.279Z,100671.25
2023-03-17T20:51:16.832Z,100670.22
2023-03-17T20:53:48.123Z,100680.47
2023-03-17T20:56:22.477Z,100684.03
2023-03-17T20:58:49.867Z,100690.44
2023-03-17T21:01:20.459Z,100689.44
2023-03-17T21:03:48.637Z,100675.78
2023-03-17T21:06:17.667Z,100673.75
2023-03-17T21:08:46.181Z,100599.63
2023-03-17T21:11:20.585Z,100655.47
2023-03-17T21:13:47.697Z,100645.66
2023-03-17T21:16:20.144Z,100675.06
2023-03-17T21:18:47.535Z,100634.81
2023-03-17T21:21:14.528Z,100676.75
2023-03-17T21:23:41.696Z,100674.22
2023-03-17T21:26:09.366Z,100675.78
2023-03-17T21:28:38.274Z,100657.25
2023-03-17T21:31:06.978Z,100642.34
2023-03-17T21:33:34.425Z,100628.13
2023-03-17T21:36:01.748Z,100669.34
2023-03-17T21:38:31.937Z,100669.31
2023-03-17T21:40:59.208Z,100680.09
2023-03-17T21:43:25.849Z,100672.72
2023-03-17T21:45:52.438Z,100673.13
2023-03-17T21:48:19.131Z,100581.94
2023-03-17T21:50:47.881Z,100658.06
2023-03-17T21:53:15.894Z,100641.69
2023-03-17T21:55:42.820Z,100620.03
2023-03-17T21:58:09.400Z,100636.66
2023-03-17T22:00:44.814Z,100647.56
2023-03-17T22:03:12.252Z,100639.66
2023-03-17T22:05:38.782Z,100657.88
2023-03-17T22:08:05.636Z,100651.34
2023-03-17T22:10:32.520Z,100667.69
2023-03-17T22:12:59.293Z,100616.78
2023-03-17T22:15:27.132Z,100672.00
2023-03-17T22:17:53.664Z,100672.53
2023-03-17T22:20:20.269Z,100666.25
2023-03-17T22:22:46.722Z,100652.72
2023-03-17T22:25:13.185Z,100646.63
2023-03-17T22:27:39.671Z,100652.03
2023-03-17T22:30:06.680Z,100657.16
2023-03-17T22:32:33.409Z,100665.25
2023-03-17T22:35:00.251Z,100659.69
2023-03-17T22:37:27.946Z,100600.22
2023-03-17T22:39:54.454Z,100661.69
2023-03-17T22:42:21.125Z,100643.63
2023-03-17T22:44:47.580Z,100595.94
2023-03-17T22:47:14.106Z,100624.75
2023-03-17T22:49:40.965Z,100654.31
2023-03-17T22:52:08.717Z,100662.41
2023-03-17T22:54:35.270Z,100616.94
2023-03-17T22:57:01.907Z,100648.50
2023-03-17T22:59:29.051Z,100646.81
2023-03-17T23:01:55.634Z,100651.91
2023-03-17T23:04:25.236Z,100583.75
2023-03-17T23:06:52.971Z,100639.88
2023-03-17T23:09:19.780Z,100667.41
2023-03-17T23:11:47.346Z,100668.72
2023-03-17T23:14:14.117Z,100628.50
2023-03-17T23:16:40.997Z,100673.53
2023-03-17T23:19:07.515Z,100666.03
2023-03-17T23:21:37.945Z,100668.19
2023-03-17T23:24:07.746Z,100680.59
2023-03-17T23:26:36.948Z,100668.63
2023-03-17T23:29:08.543Z,100614.66
2023-03-17T23:31:36.854Z,100671.75
2023-03-17T23:34:06.681Z,100666.06
2023-03-17T23:36:35.116Z,100624.72
2023-03-17T23:39:02.363Z,100655.97
2023-03-17T23:41:28.822Z,100643.47
2023-03-17T23:43:55.385Z,100649.31
2023-03-17T23:46:21.983Z,100652.13
2023-03-17T23:48:49.691Z,100657.13
2023-03-17T23:51:18.242Z,100539.78
2023-03-17T23:53:46.458Z,100650.72
2023-03-17T23:56:13.466Z,100656.00
2023-03-17T23:58:42.515Z,100656.84
